Time;durP1;ratioP1;P1;durP2;ratioP2;P2;SDS_P1;SDS_P2;PMS_P1;PMS_P2;Temp;Humidity;BMP_temperature;BMP_pressure;BME280_temperature;BME280_humidity;BME280_pressure;Samples;Min_cycle;Max_cycle;Signal;HPM_P1;HPM_P2
2021/09/14 00:01:46;;;;;;;;;;;21.70;65.50;;;;;;5042610;28;19913;-61
2021/09/14 00:04:11;;;;;;;;;;;21.80;65.20;;;;;;5032356;28;19921;-61
2021/09/14 00:06:40;;;;;;;;;;;21.70;65.90;;;;;;5037926;28;19974;-62
2021/09/14 00:09:06;;;;;;;;;;;21.70;65.90;;;;;;5035168;28;19925;-62
2021/09/14 00:11:33;;;;;;;;;;;21.70;66.10;;;;;;5017656;28;20177;-61
2021/09/14 00:13:58;;;;;;;;;;;21.70;65.70;;;;;;5026569;28;19921;-62
2021/09/14 00:16:24;;;;;;;;;;;21.70;65.60;;;;;;5034225;28;20137;-62
2021/09/14 00:18:50;;;;;;;;;;;21.70;66.00;;;;;;5034415;28;19918;-62
2021/09/14 00:21:16;;;;;;;;;;;21.70;65.60;;;;;;5020258;28;20078;-64
2021/09/14 00:23:42;;;;;;;;;;;21.80;65.70;;;;;;5037065;28;20051;-62
2021/09/14 00:26:07;;;;;;;;;;;21.70;65.80;;;;;;5029560;28;19921;-62
2021/09/14 00:28:32;;;;;;;;;;;21.70;65.50;;;;;;5025549;28;20436;-61
2021/09/14 00:30:58;;;;;;;;;;;21.70;65.20;;;;;;5025907;28;19925;-61
2021/09/14 00:33:23;;;;;;;;;;;21.70;65.70;;;;;;5033046;28;19916;-62
2021/09/14 00:35:49;;;;;;;;;;;21.70;65.80;;;;;;5026115;28;19936;-61
2021/09/14 00:38:14;;;;;;;;;;;21.70;65.50;;;;;;5042743;28;20371;-62
2021/09/14 00:40:40;;;;;;;;;;;21.70;65.40;;;;;;5034668;28;19913;-63
2021/09/14 00:43:05;;;;;;;;;;;21.70;65.60;;;;;;5034684;28;20059;-61
2021/09/14 00:45:31;;;;;;;;;;;21.70;65.70;;;;;;5034409;28;19972;-60
2021/09/14 00:47:56;;;;;;;;;;;21.70;65.70;;;;;;5027214;28;20274;-61
2021/09/14 00:50:21;;;;;;;;;;;21.70;65.50;;;;;;5037192;28;19959;-61
2021/09/14 00:52:47;;;;;;;;;;;21.70;65.60;;;;;;5021518;28;20000;-63
2021/09/14 00:55:12;;;;;;;;;;;21.70;65.70;;;;;;5041385;28;19913;-61
2021/09/14 00:57:38;;;;;;;;;;;21.70;65.70;;;;;;5038366;28;20294;-61
2021/09/14 01:00:04;;;;;;;;;;;21.70;65.00;;;;;;5034492;28;19945;-61
2021/09/14 01:02:29;;;;;;;;;;;21.70;65.10;;;;;;5028297;28;19921;-61
2021/09/14 01:04:56;;;;;;;;;;;21.70;65.70;;;;;;5038569;28;20364;-62
2021/09/14 01:07:21;;;;;;;;;;;21.70;65.80;;;;;;5038313;28;19925;-61
2021/09/14 01:09:46;;;;;;;;;;;21.70;65.90;;;;;;5033746;28;19917;-60
2021/09/14 01:12:12;;;;;;;;;;;21.60;65.90;;;;;;5031359;28;19920;-62
2021/09/14 01:14:37;;;;;;;;;;;21.70;65.90;;;;;;5036143;28;20382;-62
2021/09/14 01:17:03;;;;;;;;;;;21.70;65.90;;;;;;5057445;28;19917;-60
2021/09/14 01:19:28;;;;;;;;;;;21.70;65.40;;;;;;5033659;28;19917;-61
2021/09/14 01:21:54;;;;;;;;;;;21.60;65.80;;;;;;5025159;28;19921;-62
2021/09/14 01:24:19;;;;;;;;;;;21.70;65.60;;;;;;5038008;28;20372;-60
2021/09/14 01:26:45;;;;;;;;;;;21.70;65.50;;;;;;5041418;28;19913;-61
2021/09/14 01:29:11;;;;;;;;;;;21.70;65.30;;;;;;5040556;28;20286;-59
2021/09/14 01:31:36;;;;;;;;;;;21.70;65.50;;;;;;5044087;28;20102;-60
2021/09/14 01:34:02;;;;;;;;;;;21.70;65.50;;;;;;5027459;28;20033;-60
2021/09/14 01:36:27;;;;;;;;;;;21.70;65.50;;;;;;5033344;28;19913;-61
2021/09/14 01:38:52;;;;;;;;;;;21.70;65.80;;;;;;5038150;28;19917;-61
2021/09/14 01:41:18;;;;;;;;;;;21.70;65.90;;;;;;5033528;28;19917;-61
2021/09/14 01:43:43;;;;;;;;;;;21.60;66.00;;;;;;5043644;28;20030;-63
2021/09/14 01:46:09;;;;;;;;;;;21.60;66.00;;;;;;5045120;28;19995;-61
2021/09/14 01:48:34;;;;;;;;;;;21.60;65.60;;;;;;5028109;28;19913;-60
2021/09/14 01:51:00;;;;;;;;;;;21.60;65.80;;;;;;5029792;28;20028;-62
2021/09/14 01:53:27;;;;;;;;;;;21.60;65.00;;;;;;5034878;28;19963;-62
2021/09/14 01:55:53;;;;;;;;;;;21.60;65.40;;;;;;5027530;28;20259;-62
2021/09/14 01:58:19;;;;;;;;;;;21.60;65.90;;;;;;5034910;28;20377;-60
2021/09/14 02:00:55;;;;;;;;;;;21.70;65.20;;;;;;5039658;28;19920;-61
2021/09/14 02:06:20;;;;;;;;;;;21.60;65.30;;;;;;5038637;28;19928;-63
2021/09/14 02:39:12;;;;;;;;;;;21.60;65.30;;;;;;5037762;28;19920;-62
2021/09/14 02:41:42;;;;;;;;;;;21.60;65.50;;;;;;5040676;28;20406;-63
2021/09/14 02:44:23;;;;;;;;;;;21.60;65.00;;;;;;5030942;28;20016;-62
2021/09/14 03:00:29;;;;;;;;;;;21.60;65.40;;;;;;5020197;28;19924;-61
2021/09/14 03:02:54;;;;;;;;;;;21.60;65.70;;;;;;5020539;28;19913;-62
2021/09/14 03:05:20;;;;;;;;;;;21.60;65.40;;;;;;5019669;28;19921;-61
2021/09/14 03:07:45;;;;;;;;;;;21.50;65.90;;;;;;5020448;28;19975;-62
2021/09/14 03:10:11;;;;;;;;;;;21.50;65.80;;;;;;5020442;28;19913;-62
2021/09/14 03:12:36;;;;;;;;;;;21.50;65.90;;;;;;5020937;28;19913;-62
2021/09/14 03:15:02;;;;;;;;;;;21.50;64.70;;;;;;5019903;28;20290;-62
2021/09/14 03:17:27;;;;;;;;;;;21.50;65.10;;;;;;5018994;28;19916;-60
2021/09/14 03:19:52;;;;;;;;;;;21.50;65.00;;;;;;5018893;28;19923;-62
2021/09/14 03:22:18;;;;;;;;;;;21.50;65.60;;;;;;5020311;28;20372;-61
2021/09/14 03:24:43;;;;;;;;;;;21.60;65.90;;;;;;5020971;28;19917;-61
2021/09/14 03:27:09;;;;;;;;;;;21.50;65.20;;;;;;5020153;28;19913;-62
2021/09/14 03:29:34;;;;;;;;;;;21.50;65.90;;;;;;5018235;28;19913;-61
2021/09/14 03:32:00;;;;;;;;;;;21.50;65.70;;;;;;5019410;28;19919;-61
2021/09/14 03:34:25;;;;;;;;;;;21.40;64.30;;;;;;5019834;28;19963;-60
2021/09/14 03:36:50;;;;;;;;;;;21.50;65.20;;;;;;5019958;28;20386;-62
2021/09/14 03:39:16;;;;;;;;;;;21.50;65.90;;;;;;5019991;28;19913;-62
2021/09/14 03:41:41;;;;;;;;;;;21.50;65.60;;;;;;5019300;28;19943;-61
2021/09/14 03:44:07;;;;;;;;;;;21.50;65.90;;;;;;5019017;28;19936;-63
2021/09/14 03:46:32;;;;;;;;;;;21.50;65.90;;;;;;5019694;28;20000;-63
2021/09/14 03:48:58;;;;;;;;;;;21.50;65.80;;;;;;5019516;28;20386;-61
2021/09/14 03:51:23;;;;;;;;;;;21.50;65.80;;;;;;5019678;28;19917;-63
2021/09/14 03:53:49;;;;;;;;;;;21.60;65.00;;;;;;5019597;28;19931;-63
2021/09/14 03:56:14;;;;;;;;;;;21.50;64.80;;;;;;5023494;28;19967;-61
2021/09/14 03:58:40;;;;;;;;;;;21.40;64.50;;;;;;5035573;28;19913;-62
2021/09/14 04:01:05;;;;;;;;;;;21.30;64.80;;;;;;5039178;28;19917;-62
2021/09/14 04:11:14;;;;;;;;;;;21.40;65.40;;;;;;5030362;28;19923;-62
2021/09/14 04:13:40;;;;;;;;;;;21.40;65.40;;;;;;5021738;28;19914;-61
2021/09/14 04:16:05;;;;;;;;;;;21.40;65.30;;;;;;5038186;28;19917;-62
2021/09/14 04:18:31;;;;;;;;;;;21.40;65.30;;;;;;5034093;28;20366;-62
2021/09/14 04:20:56;;;;;;;;;;;21.40;64.80;;;;;;5035021;28;19936;-62
2021/09/14 04:23:22;;;;;;;;;;;21.40;64.70;;;;;;5027121;28;19924;-61
2021/09/14 04:25:47;;;;;;;;;;;21.30;64.90;;;;;;5033006;28;19917;-62
2021/09/14 04:28:13;;;;;;;;;;;21.30;65.10;;;;;;5018606;28;20376;-62
2021/09/14 04:30:39;;;;;;;;;;;21.30;65.70;;;;;;5025361;28;19913;-62
2021/09/14 04:33:04;;;;;;;;;;;21.40;64.80;;;;;;5029046;28;19921;-62
2021/09/14 04:35:30;;;;;;;;;;;21.40;64.90;;;;;;5031473;28;20293;-62
2021/09/14 04:37:55;;;;;;;;;;;21.30;65.10;;;;;;5023848;28;19923;-60
2021/09/14 04:40:21;;;;;;;;;;;21.40;65.10;;;;;;5022813;28;19925;-62
2021/09/14 04:42:46;;;;;;;;;;;21.30;64.50;;;;;;5025957;28;19913;-62
2021/09/14 04:45:12;;;;;;;;;;;21.30;64.70;;;;;;5029300;28;20396;-61
2021/09/14 04:47:37;;;;;;;;;;;21.30;65.10;;;;;;5022939;28;20039;-63
2021/09/14 04:50:03;;;;;;;;;;;21.30;65.00;;;;;;5023700;28;19913;-62
2021/09/14 04:52:28;;;;;;;;;;;21.20;65.10;;;;;;5040687;28;20665;-61
2021/09/14 04:54:54;;;;;;;;;;;21.10;64.50;;;;;;5027774;28;19913;-60
2021/09/14 04:57:19;;;;;;;;;;;21.10;64.70;;;;;;5033709;28;19975;-61
2021/09/14 04:59:44;;;;;;;;;;;21.00;64.90;;;;;;5029990;28;20290;-62
2021/09/14 05:02:10;;;;;;;;;;;20.90;64.80;;;;;;5037937;28;19917;-60
2021/09/14 05:04:35;;;;;;;;;;;20.90;65.20;;;;;;5033398;28;19963;-62
2021/09/14 05:07:01;;;;;;;;;;;20.90;65.10;;;;;;5028581;28;20305;-61
2021/09/14 05:09:26;;;;;;;;;;;20.90;64.90;;;;;;5021516;28;19928;-62
2021/09/14 05:11:52;;;;;;;;;;;21.00;65.00;;;;;;5035958;28;19913;-61
2021/09/14 05:14:17;;;;;;;;;;;20.90;64.80;;;;;;5025583;28;19921;-62
2021/09/14 05:16:43;;;;;;;;;;;21.00;65.40;;;;;;5028189;28;20349;-62
2021/09/14 05:19:09;;;;;;;;;;;21.00;65.60;;;;;;5034313;28;19925;-62
2021/09/14 05:21:43;;;;;;;;;;;21.00;65.80;;;;;;5035221;28;19913;-62
2021/09/14 05:24:09;;;;;;;;;;;21.00;66.30;;;;;;5031917;28;19920;-62
2021/09/14 05:26:34;;;;;;;;;;;21.00;66.30;;;;;;5030649;28;19921;-61
2021/09/14 05:29:00;;;;;;;;;;;21.10;66.00;;;;;;5026777;28;20445;-63
2021/09/14 05:31:25;;;;;;;;;;;21.10;66.70;;;;;;5036668;28;19916;-63
2021/09/14 05:33:51;;;;;;;;;;;21.20;66.30;;;;;;5038343;28;19920;-61
2021/09/14 05:36:16;;;;;;;;;;;21.30;64.80;;;;;;5030106;28;19939;-61
2021/09/14 05:38:42;;;;;;;;;;;21.20;64.30;;;;;;5039050;28;20370;-62
2021/09/14 05:41:07;;;;;;;;;;;21.30;62.90;;;;;;5029626;28;19917;-61
2021/09/14 05:43:33;;;;;;;;;;;21.30;62.40;;;;;;5023444;28;19913;-59
2021/09/14 05:45:58;;;;;;;;;;;21.30;62.10;;;;;;5029275;28;19921;-61
2021/09/14 05:48:24;;;;;;;;;;;21.30;61.90;;;;;;5039407;28;19913;-62
2021/09/14 05:50:49;;;;;;;;;;;21.30;61.60;;;;;;5034435;28;19913;-61
2021/09/14 05:53:15;;;;;;;;;;;21.20;61.60;;;;;;5043565;28;19916;-62
2021/09/14 05:55:40;;;;;;;;;;;21.30;61.50;;;;;;5023828;28;19921;-62
2021/09/14 05:58:06;;;;;;;;;;;21.30;61.60;;;;;;5030698;28;19917;-62
2021/09/14 06:00:31;;;;;;;;;;;21.20;61.50;;;;;;5023696;28;19917;-62
2021/09/14 06:02:57;;;;;;;;;;;21.20;61.50;;;;;;5032839;28;19966;-62
2021/09/14 06:05:22;;;;;;;;;;;21.20;61.70;;;;;;5034286;28;19967;-62
2021/09/14 06:07:48;;;;;;;;;;;21.10;62.40;;;;;;5021589;28;20381;-62
2021/09/14 06:10:13;;;;;;;;;;;21.10;63.40;;;;;;5021961;28;19917;-62
2021/09/14 06:12:39;;;;;;;;;;;21.10;63.10;;;;;;5022445;28;19928;-62
2021/09/14 06:15:04;;;;;;;;;;;21.20;62.30;;;;;;5021878;28;20382;-61
2021/09/14 06:17:30;;;;;;;;;;;21.10;62.00;;;;;;5022597;28;20536;-61
2021/09/14 06:19:55;;;;;;;;;;;21.10;62.00;;;;;;5035337;28;19913;-62
2021/09/14 06:22:21;;;;;;;;;;;21.10;62.20;;;;;;5026540;28;20427;-61
2021/09/14 06:24:47;;;;;;;;;;;21.10;62.30;;;;;;5042660;28;19932;-60
2021/09/14 06:27:12;;;;;;;;;;;21.10;62.30;;;;;;5028986;28;19995;-61
2021/09/14 06:29:38;;;;;;;;;;;21.10;62.50;;;;;;5034696;28;19917;-61
2021/09/14 06:32:04;;;;;;;;;;;21.10;62.60;;;;;;5031320;28;20354;-62
2021/09/14 06:34:30;;;;;;;;;;;21.00;62.70;;;;;;5034121;28;20500;-62
2021/09/14 06:36:55;;;;;;;;;;;21.00;62.80;;;;;;5038070;28;19913;-62
2021/09/14 06:39:21;;;;;;;;;;;21.00;63.20;;;;;;5033447;28;20571;-61
2021/09/14 06:41:46;;;;;;;;;;;21.00;63.40;;;;;;5030905;28;19921;-62
2021/09/14 06:44:12;;;;;;;;;;;21.00;63.70;;;;;;5020418;28;19917;-61
2021/09/14 06:46:37;;;;;;;;;;;21.00;63.90;;;;;;5027787;28;20179;-61
2021/09/14 06:49:03;;;;;;;;;;;21.00;64.30;;;;;;5027928;28;19920;-61
2021/09/14 06:51:28;;;;;;;;;;;21.10;64.30;;;;;;5018065;28;20362;-61
2021/09/14 06:53:53;;;;;;;;;;;21.10;64.10;;;;;;5019258;28;19914;-62
2021/09/14 06:56:20;;;;;;;;;;;21.10;64.30;;;;;;5028603;28;20271;-61
2021/09/14 06:58:46;;;;;;;;;;;21.10;64.30;;;;;;5028674;28;19945;-61
2021/09/14 07:01:21;;;;;;;;;;;21.10;64.40;;;;;;5037970;28;19913;-62
2021/09/14 07:03:46;;;;;;;;;;;21.10;64.40;;;;;;5035622;28;21664;-62
2021/09/14 07:06:12;;;;;;;;;;;21.10;64.40;;;;;;5026816;28;19913;-62
2021/09/14 07:08:37;;;;;;;;;;;21.10;64.20;;;;;;5029488;28;20660;-62
2021/09/14 07:11:03;;;;;;;;;;;21.20;64.40;;;;;;5035724;28;19913;-62
2021/09/14 07:13:28;;;;;;;;;;;21.10;64.40;;;;;;5039319;28;19917;-61
2021/09/14 07:15:53;;;;;;;;;;;21.10;64.40;;;;;;5039927;28;20401;-62
2021/09/14 07:18:19;;;;;;;;;;;21.10;64.50;;;;;;5039264;28;19920;-62
2021/09/14 07:20:44;;;;;;;;;;;21.10;64.60;;;;;;5035402;28;20704;-62
2021/09/14 07:23:10;;;;;;;;;;;21.10;64.60;;;;;;5027655;28;19935;-60
2021/09/14 07:25:41;;;;;;;;;;;21.10;64.60;;;;;;5027445;28;19960;-61
2021/09/14 07:28:07;;;;;;;;;;;21.10;64.50;;;;;;5020250;28;19928;-61
2021/09/14 07:30:33;;;;;;;;;;;21.10;64.60;;;;;;5019870;28;19913;-61
2021/09/14 07:32:58;;;;;;;;;;;21.10;64.90;;;;;;5028718;28;20289;-61
2021/09/14 07:35:24;;;;;;;;;;;21.10;65.10;;;;;;5039251;28;19935;-60
2021/09/14 07:37:49;;;;;;;;;;;21.10;65.10;;;;;;5039737;28;19996;-61
2021/09/14 07:40:15;;;;;;;;;;;21.10;65.00;;;;;;5021342;28;19982;-60
2021/09/14 07:42:40;;;;;;;;;;;21.10;64.90;;;;;;5025020;28;20435;-60
2021/09/14 07:45:06;;;;;;;;;;;21.10;64.70;;;;;;5037777;28;19927;-61
2021/09/14 07:47:31;;;;;;;;;;;21.10;64.80;;;;;;5038421;28;19913;-61
2021/09/14 07:49:57;;;;;;;;;;;21.10;64.90;;;;;;5037898;28;19940;-61
2021/09/14 07:52:22;;;;;;;;;;;21.10;64.90;;;;;;5038398;28;19921;-61
2021/09/14 07:54:48;;;;;;;;;;;21.10;64.80;;;;;;5020110;28;19913;-61
2021/09/14 07:57:13;;;;;;;;;;;21.10;64.70;;;;;;5018920;28;19919;-60
2021/09/14 07:59:39;;;;;;;;;;;21.00;64.70;;;;;;5019786;28;19924;-62
2021/09/14 08:02:04;;;;;;;;;;;21.00;64.60;;;;;;5025575;28;19913;-61
2021/09/14 08:04:30;;;;;;;;;;;21.10;64.70;;;;;;5016477;28;20561;-61
2021/09/14 08:06:55;;;;;;;;;;;21.00;64.70;;;;;;5017578;28;19929;-61
2021/09/14 08:09:21;;;;;;;;;;;21.00;64.70;;;;;;5018481;28;19936;-60
2021/09/14 08:11:47;;;;;;;;;;;21.00;64.80;;;;;;5018405;28;20102;-60
2021/09/14 08:14:12;;;;;;;;;;;21.10;64.80;;;;;;5019036;28;19944;-59
2021/09/14 08:16:38;;;;;;;;;;;21.00;64.70;;;;;;5017019;28;20267;-60
2021/09/14 08:19:03;;;;;;;;;;;21.10;64.70;;;;;;5016435;28;19913;-60
2021/09/14 08:21:29;;;;;;;;;;;21.00;64.80;;;;;;5018686;28;19920;-60
2021/09/14 08:23:54;;;;;;;;;;;21.00;64.90;;;;;;5017095;28;20410;-60
2021/09/14 08:26:20;;;;;;;;;;;21.00;64.90;;;;;;5018625;28;19913;-61
2021/09/14 08:28:45;;;;;;;;;;;21.00;64.90;;;;;;5017369;28;20345;-61
2021/09/14 08:31:11;;;;;;;;;;;21.00;64.80;;;;;;5018945;28;19921;-61
2021/09/14 08:33:36;;;;;;;;;;;21.00;63.40;;;;;;5017157;28;19928;-61
2021/09/14 08:36:01;;;;;;;;;;;21.00;64.50;;;;;;5018235;28;19915;-60
2021/09/14 08:38:27;;;;;;;;;;;21.10;64.20;;;;;;5016945;28;20309;-61
2021/09/14 08:40:52;;;;;;;;;;;21.10;64.30;;;;;;5019123;28;19920;-60
2021/09/14 08:43:18;;;;;;;;;;;21.10;63.40;;;;;;5026201;28;19919;-62
2021/09/14 08:45:44;;;;;;;;;;;21.10;64.10;;;;;;5031755;28;19917;-62
2021/09/14 08:48:09;;;;;;;;;;;21.10;63.90;;;;;;5018088;28;19978;-62
2021/09/14 08:50:35;;;;;;;;;;;21.00;64.60;;;;;;5018285;28;19913;-62
2021/09/14 08:53:00;;;;;;;;;;;21.00;64.40;;;;;;5031467;28;19913;-61
2021/09/14 08:55:25;;;;;;;;;;;21.00;64.20;;;;;;5035763;28;20461;-61
2021/09/14 08:57:51;;;;;;;;;;;21.10;63.60;;;;;;5041054;28;19920;-60
2021/09/14 09:00:30;;;;;;;;;;;21.10;64.10;;;;;;5040688;28;19916;-60
2021/09/14 09:02:56;;;;;;;;;;;21.10;62.70;;;;;;5023488;28;20329;-61
2021/09/14 09:05:33;;;;;;;;;;;21.10;63.30;;;;;;5024079;28;19917;-61
2021/09/14 09:08:01;;;;;;;;;;;21.10;63.50;;;;;;5026104;28;20305;-59
2021/09/14 09:10:26;;;;;;;;;;;21.10;63.60;;;;;;5035291;28;19913;-62
2021/09/14 09:12:52;;;;;;;;;;;21.00;64.00;;;;;;5032373;28;19920;-62
2021/09/14 09:15:24;;;;;;;;;;;21.00;64.30;;;;;;5031255;28;19913;-61
2021/09/14 09:17:59;;;;;;;;;;;21.00;64.00;;;;;;5010709;28;19967;-61
2021/09/14 09:20:24;;;;;;;;;;;21.00;64.00;;;;;;5038236;28;19913;-59
2021/09/14 09:22:59;;;;;;;;;;;21.10;63.90;;;;;;5031492;28;19913;-61
2021/09/14 09:25:25;;;;;;;;;;;21.10;63.60;;;;;;5034331;28;20225;-59
2021/09/14 09:28:02;;;;;;;;;;;21.10;63.50;;;;;;5034278;28;22308;-61
2021/09/14 09:30:33;;;;;;;;;;;21.10;63.30;;;;;;5035871;28;19912;-61
2021/09/14 09:33:02;;;;;;;;;;;21.00;63.70;;;;;;5035113;28;20012;-61
2021/09/14 09:35:28;;;;;;;;;;;21.00;64.30;;;;;;5039769;28;19924;-60
2021/09/14 09:37:54;;;;;;;;;;;21.00;64.30;;;;;;5037956;28;19941;-61
2021/09/14 09:40:26;;;;;;;;;;;21.00;63.50;;;;;;5022011;28;20629;-62
2021/09/14 09:42:51;;;;;;;;;;;21.00;63.70;;;;;;5023022;28;19935;-61
2021/09/14 09:45:18;;;;;;;;;;;21.00;63.50;;;;;;5021973;28;20469;-60
2021/09/14 09:47:45;;;;;;;;;;;21.00;63.90;;;;;;5022099;28;20700;-61
2021/09/14 09:50:12;;;;;;;;;;;21.00;64.10;;;;;;5020205;28;20366;-61
2021/09/14 09:52:37;;;;;;;;;;;21.00;64.40;;;;;;5021277;28;20414;-61
2021/09/14 09:55:03;;;;;;;;;;;21.00;64.10;;;;;;5020994;28;19920;-61
2021/09/14 09:57:28;;;;;;;;;;;21.00;64.40;;;;;;5021934;28;19928;-61
2021/09/14 09:59:54;;;;;;;;;;;20.90;64.60;;;;;;5037566;28;20005;-62
2021/09/14 10:02:23;;;;;;;;;;;21.00;64.50;;;;;;5036547;28;19936;-61
2021/09/14 10:04:56;;;;;;;;;;;21.00;64.10;;;;;;5036203;28;20012;-61
2021/09/14 10:07:24;;;;;;;;;;;21.00;64.30;;;;;;5035256;28;20000;-60
2021/09/14 10:09:50;;;;;;;;;;;21.00;64.10;;;;;;5028522;28;19917;-61
2021/09/14 10:12:26;;;;;;;;;;;21.00;63.80;;;;;;5038463;28;20008;-61
2021/09/14 10:15:05;;;;;;;;;;;21.00;64.70;;;;;;5020737;28;20067;-61
2021/09/14 10:17:31;;;;;;;;;;;20.90;64.60;;;;;;5020629;28;19914;-61
2021/09/14 10:20:07;;;;;;;;;;;20.90;64.90;;;;;;5032371;28;19917;-61
2021/09/14 10:22:32;;;;;;;;;;;20.90;64.70;;;;;;5040508;28;19913;-61
2021/09/14 10:25:01;;;;;;;;;;;20.90;64.70;;;;;;5023953;28;20297;-61
2021/09/14 10:27:34;;;;;;;;;;;20.90;64.60;;;;;;5039024;28;19920;-60
2021/09/14 10:29:59;;;;;;;;;;;20.90;64.00;;;;;;5035073;28;19992;-60
2021/09/14 10:32:24;;;;;;;;;;;20.90;64.00;;;;;;5018933;28;19967;-60
2021/09/14 10:34:54;;;;;;;;;;;20.90;64.60;;;;;;5020715;28;19913;-61
2021/09/14 10:37:19;;;;;;;;;;;20.90;64.70;;;;;;5037261;28;19917;-61
2021/09/14 10:39:45;;;;;;;;;;;20.90;64.60;;;;;;5040400;28;19927;-61
2021/09/14 10:42:11;;;;;;;;;;;20.90;64.00;;;;;;5040020;28;20377;-61
2021/09/14 10:44:36;;;;;;;;;;;20.90;64.40;;;;;;5023547;28;19948;-62
2021/09/14 10:47:06;;;;;;;;;;;20.90;64.20;;;;;;5020061;28;20297;-60
2021/09/14 10:49:44;;;;;;;;;;;20.80;64.00;;;;;;5036445;28;19916;-61
2021/09/14 10:52:10;;;;;;;;;;;20.90;62.90;;;;;;5038434;28;20523;-61
2021/09/14 10:54:48;;;;;;;;;;;20.90;62.80;;;;;;5039799;28;19913;-62
2021/09/14 10:57:14;;;;;;;;;;;20.90;63.30;;;;;;5039995;28;19986;-62
2021/09/14 10:59:46;;;;;;;;;;;20.90;63.50;;;;;;5038996;28;20378;-61
2021/09/14 11:02:11;;;;;;;;;;;20.90;63.90;;;;;;5037703;28;20424;-60
2021/09/14 11:04:37;;;;;;;;;;;20.90;63.90;;;;;;5038625;28;19920;-61
2021/09/14 11:07:09;;;;;;;;;;;20.90;63.80;;;;;;5029779;28;20422;-61
2021/09/14 11:09:34;;;;;;;;;;;20.90;64.00;;;;;;5020810;28;19913;-61
2021/09/14 11:11:59;;;;;;;;;;;20.80;64.10;;;;;;5019885;28;20550;-61
2021/09/14 11:14:37;;;;;;;;;;;20.90;64.30;;;;;;5029007;28;20004;-61
2021/09/14 11:17:02;;;;;;;;;;;20.90;64.20;;;;;;5030899;28;19920;-61
2021/09/14 11:19:28;;;;;;;;;;;20.90;64.30;;;;;;5039499;28;20132;-61
2021/09/14 11:21:54;;;;;;;;;;;20.90;64.50;;;;;;5034896;28;20520;-61
2021/09/14 11:24:20;;;;;;;;;;;20.90;64.60;;;;;;5019686;28;20524;-60
2021/09/14 11:26:45;;;;;;;;;;;20.90;64.80;;;;;;5028573;28;19963;-59
2021/09/14 11:29:11;;;;;;;;;;;20.90;64.50;;;;;;5039507;28;19913;-62
2021/09/14 11:31:38;;;;;;;;;;;20.90;64.30;;;;;;5038168;28;19916;-60
2021/09/14 11:34:05;;;;;;;;;;;20.90;64.30;;;;;;5035112;28;20397;-60
2021/09/14 11:36:31;;;;;;;;;;;20.90;64.50;;;;;;5030748;28;20343;-61
2021/09/14 11:39:00;;;;;;;;;;;20.90;64.60;;;;;;5037191;28;19921;-61
2021/09/14 11:41:35;;;;;;;;;;;20.90;64.30;;;;;;5038547;28;19919;-61
2021/09/14 11:44:00;;;;;;;;;;;20.90;64.20;;;;;;5034891;28;20370;-60
2021/09/14 11:46:26;;;;;;;;;;;20.90;64.10;;;;;;5054221;28;19913;-60
2021/09/14 11:48:58;;;;;;;;;;;20.90;63.90;;;;;;5035012;28;19917;-60
2021/09/14 11:51:25;;;;;;;;;;;20.90;64.10;;;;;;5019786;28;19918;-60
2021/09/14 11:53:51;;;;;;;;;;;20.90;64.30;;;;;;5017684;28;19919;-60
2021/09/14 11:56:17;;;;;;;;;;;20.90;64.60;;;;;;5020264;28;20013;-60
2021/09/14 11:58:43;;;;;;;;;;;20.90;64.90;;;;;;5032011;28;19921;-60
2021/09/14 12:01:09;;;;;;;;;;;20.90;64.60;;;;;;5041929;28;19966;-59
2021/09/14 12:03:38;;;;;;;;;;;20.90;64.60;;;;;;5041519;28;19916;-60
2021/09/14 12:06:04;;;;;;;;;;;20.90;64.50;;;;;;5039847;28;19962;-61
2021/09/14 12:08:31;;;;;;;;;;;20.90;64.60;;;;;;5021580;28;19928;-60
2021/09/14 12:10:56;;;;;;;;;;;20.90;64.70;;;;;;5027679;28;19966;-60
2021/09/14 12:13:22;;;;;;;;;;;20.90;64.60;;;;;;5034546;28;19917;-61
2021/09/14 12:15:47;;;;;;;;;;;20.90;64.90;;;;;;5019845;28;19913;-60
2021/09/14 12:18:15;;;;;;;;;;;20.90;65.00;;;;;;5038884;28;19913;-61
2021/09/14 12:20:42;;;;;;;;;;;20.90;65.20;;;;;;5039098;28;19919;-59
2021/09/14 12:23:07;;;;;;;;;;;20.90;65.00;;;;;;5032031;28;20289;-61
2021/09/14 12:25:33;;;;;;;;;;;20.90;64.60;;;;;;5034374;28;19928;-60
2021/09/14 12:27:58;;;;;;;;;;;20.90;64.70;;;;;;5037274;28;19983;-60
2021/09/14 12:30:24;;;;;;;;;;;20.90;64.50;;;;;;5039156;28;19922;-61
2021/09/14 12:32:49;;;;;;;;;;;21.00;64.30;;;;;;5032049;28;19913;-61
2021/09/14 12:35:15;;;;;;;;;;;20.90;64.10;;;;;;5029815;28;20664;-61
2021/09/14 12:37:40;;;;;;;;;;;20.90;64.20;;;;;;5025819;28;19933;-61
2021/09/14 12:40:06;;;;;;;;;;;20.90;64.50;;;;;;5026488;28;19960;-61
2021/09/14 12:42:31;;;;;;;;;;;20.90;64.50;;;;;;5031693;28;20576;-60
2021/09/14 12:44:59;;;;;;;;;;;20.90;64.30;;;;;;5024911;28;20394;-61
2021/09/14 12:47:24;;;;;;;;;;;20.90;64.40;;;;;;5036500;28;20483;-62
2021/09/14 12:49:50;;;;;;;;;;;20.90;64.30;;;;;;5044387;28;20046;-61
2021/09/14 12:52:15;;;;;;;;;;;20.90;64.10;;;;;;5045162;28;20378;-62
2021/09/14 12:54:41;;;;;;;;;;;20.90;63.90;;;;;;5027174;28;19913;-61
2021/09/14 12:57:06;;;;;;;;;;;20.90;64.00;;;;;;5029572;28;19924;-61
2021/09/14 12:59:31;;;;;;;;;;;21.00;63.90;;;;;;5025276;28;20401;-60
2021/09/14 13:01:57;;;;;;;;;;;20.90;64.00;;;;;;5029080;28;20430;-61
2021/09/14 13:04:22;;;;;;;;;;;20.90;64.10;;;;;;5043414;28;19917;-62
2021/09/14 13:06:50;;;;;;;;;;;20.90;64.20;;;;;;5024283;28;19937;-61
2021/09/14 13:09:15;;;;;;;;;;;20.90;64.10;;;;;;5027228;28;19920;-62
2021/09/14 13:11:41;;;;;;;;;;;20.90;64.00;;;;;;5044036;28;19940;-60
2021/09/14 13:16:50;;;;;;;;;;;21.00;64.10;;;;;;5024469;28;19960;-61
2021/09/14 13:19:15;;;;;;;;;;;21.00;63.70;;;;;;5041715;28;19964;-61
2021/09/14 13:21:41;;;;;;;;;;;20.90;63.50;;;;;;5043889;28;19913;-60
2021/09/14 13:24:06;;;;;;;;;;;21.00;63.40;;;;;;5025174;28;19921;-60
2021/09/14 13:26:32;;;;;;;;;;;21.00;63.30;;;;;;5024877;28;19963;-61
2021/09/14 13:28:57;;;;;;;;;;;21.00;62.80;;;;;;5024270;28;19924;-61
2021/09/14 13:31:23;;;;;;;;;;;21.00;63.00;;;;;;5024911;28;19917;-60
2021/09/14 13:33:48;;;;;;;;;;;21.00;62.90;;;;;;5025153;28;19917;-62
2021/09/14 13:36:17;;;;;;;;;;;21.00;63.00;;;;;;5035037;28;19913;-61
2021/09/14 13:38:42;;;;;;;;;;;21.00;63.20;;;;;;5039858;28;19925;-61
2021/09/14 13:41:10;;;;;;;;;;;21.00;63.60;;;;;;5044288;28;19925;-61
2021/09/14 13:43:50;;;;;;;;;;;21.00;63.50;;;;;;5042554;28;19940;-62
2021/09/14 13:46:16;;;;;;;;;;;21.00;63.50;;;;;;5039902;28;19924;-62
2021/09/14 13:48:41;;;;;;;;;;;21.00;63.20;;;;;;5021641;28;19921;-60
2021/09/14 13:51:07;;;;;;;;;;;21.00;63.30;;;;;;5021600;28;20052;-61
2021/09/14 13:53:32;;;;;;;;;;;21.00;63.20;;;;;;5021844;28;19913;-59
2021/09/14 13:55:58;;;;;;;;;;;21.00;63.10;;;;;;5035018;28;19968;-59
2021/09/14 13:58:24;;;;;;;;;;;21.00;63.00;;;;;;5050005;28;19921;-60
2021/09/14 14:00:49;;;;;;;;;;;21.00;63.40;;;;;;5033526;28;19913;-60
2021/09/14 14:03:14;;;;;;;;;;;21.00;63.40;;;;;;5021187;28;19927;-61
2021/09/14 14:05:40;;;;;;;;;;;21.00;63.40;;;;;;5033720;28;19986;-61
2021/09/14 14:08:05;;;;;;;;;;;21.10;63.50;;;;;;5011257;23;19925;-61
2021/09/14 14:10:31;;;;;;;;;;;21.00;63.60;;;;;;5012256;28;19921;-62
2021/09/14 14:12:56;;;;;;;;;;;21.00;63.90;;;;;;5001116;28;20058;-60
2021/09/14 14:15:22;;;;;;;;;;;21.10;64.10;;;;;;5000588;28;19917;-61
2021/09/14 14:17:47;;;;;;;;;;;21.10;64.20;;;;;;5008405;28;20532;-61
2021/09/14 14:20:12;;;;;;;;;;;21.10;64.30;;;;;;5008443;28;19917;-60
2021/09/14 14:22:38;;;;;;;;;;;21.10;64.00;;;;;;4999834;28;19933;-61
2021/09/14 14:25:04;;;;;;;;;;;21.10;63.80;;;;;;4999767;28;19917;-60
2021/09/14 14:27:29;;;;;;;;;;;21.10;63.90;;;;;;4979380;28;19913;-62
2021/09/14 14:29:55;;;;;;;;;;;21.10;64.10;;;;;;4999509;28;19914;-62
2021/09/14 14:32:20;;;;;;;;;;;21.10;64.20;;;;;;4981743;28;19960;-61
2021/09/14 14:34:46;;;;;;;;;;;21.10;64.20;;;;;;4979053;28;19921;-62
2021/09/14 14:37:11;;;;;;;;;;;21.10;64.10;;;;;;4994664;28;19968;-61
2021/09/14 14:39:37;;;;;;;;;;;21.10;64.10;;;;;;4999083;28;20298;-61
2021/09/14 14:42:02;;;;;;;;;;;21.10;64.20;;;;;;4999575;28;19921;-60
2021/09/14 14:44:28;;;;;;;;;;;21.20;64.60;;;;;;4997902;28;20302;-61
2021/09/14 14:46:53;;;;;;;;;;;21.10;64.20;;;;;;4999689;28;19917;-61
2021/09/14 14:49:18;;;;;;;;;;;21.10;64.20;;;;;;4997818;28;19925;-62
2021/09/14 14:51:44;;;;;;;;;;;21.10;64.30;;;;;;4999649;28;20382;-61
2021/09/14 14:54:09;;;;;;;;;;;21.10;64.40;;;;;;4991476;28;19920;-60
2021/09/14 14:56:35;;;;;;;;;;;21.10;64.30;;;;;;5009679;28;19918;-61
2021/09/14 14:59:00;;;;;;;;;;;21.10;64.30;;;;;;4988149;28;19917;-61
2021/09/14 15:01:26;;;;;;;;;;;21.20;64.50;;;;;;5018654;28;19913;-61
2021/09/14 15:03:51;;;;;;;;;;;21.20;64.40;;;;;;5019255;28;19950;-62
2021/09/14 15:06:17;;;;;;;;;;;21.20;64.30;;;;;;4992297;28;20140;-61
2021/09/14 15:08:42;;;;;;;;;;;21.20;64.40;;;;;;5017713;28;20294;-61